sensor_id;sensor_type;location;lat;lon;timestamp;pressure;altitude;pressure_sealevel;temperature;humidity
70589;BME280;58152;49.202;18.744;2023-05-01T00:00:50;97754.78;;;9.59;50.60
70589;BME280;58152;49.202;18.744;2023-05-01T00:03:16;97755.13;;;9.50;50.58
70589;BME280;58152;49.202;18.744;2023-05-01T00:05:45;97752.75;;;9.42;50.74
70589;BME280;58152;49.202;18.744;2023-05-01T00:08:11;97751.28;;;9.34;50.87
70589;BME280;58152;49.202;18.744;2023-05-01T00:10:38;97761.28;;;9.23;51.36
70589;BME280;58152;49.202;18.744;2023-05-01T00:13:04;97754.69;;;9.11;51.13
70589;BME280;58152;49.202;18.744;2023-05-01T00:15:30;97750.81;;;8.96;51.72
70589;BME280;58152;49.202;18.744;2023-05-01T00:17:56;97758.25;;;8.82;51.59
70589;BME280;58152;49.202;18.744;2023-05-01T00:20:25;97759.53;;;8.69;52.13
70589;BME280;58152;49.202;18.744;2023-05-01T00:22:51;97756.06;;;8.68;52.16
70589;BME280;58152;49.202;18.744;2023-05-01T00:25:16;97759.84;;;8.59;52.48
70589;BME280;58152;49.202;18.744;2023-05-01T00:27:42;97741.00;;;8.48;52.76
70589;BME280;58152;49.202;18.744;2023-05-01T00:30:07;97736.56;;;8.50;52.78
70589;BME280;58152;49.202;18.744;2023-05-01T00:32:33;97740.72;;;8.57;52.72
70589;BME280;58152;49.202;18.744;2023-05-01T00:34:59;97744.84;;;8.64;51.94
70589;BME280;58152;49.202;18.744;2023-05-01T00:37:24;97744.84;;;8.64;52.01
70589;BME280;58152;49.202;18.744;2023-05-01T00:39:50;97737.84;;;8.65;52.55
70589;BME280;58152;49.202;18.744;2023-05-01T00:42:15;97734.66;;;8.55;52.47
70589;BME280;58152;49.202;18.744;2023-05-01T00:44:41;97738.41;;;8.47;52.24
70589;BME280;58152;49.202;18.744;2023-05-01T00:47:06;97736.78;;;8.44;52.59
70589;BME280;58152;49.202;18.744;2023-05-01T00:49:32;97734.38;;;8.36;52.44
70589;BME280;58152;49.202;18.744;2023-05-01T00:51:58;97740.81;;;8.25;53.09
70589;BME280;58152;49.202;18.744;2023-05-01T00:54:24;97734.97;;;8.17;52.53
70589;BME280;58152;49.202;18.744;2023-05-01T00:56:51;97741.97;;;8.14;52.81
70589;BME280;58152;49.202;18.744;2023-05-01T00:59:17;97734.31;;;8.08;52.98
70589;BME280;58152;49.202;18.744;2023-05-01T01:01:43;97729.22;;;8.04;53.54
70589;BME280;58152;49.202;18.744;2023-05-01T01:04:08;97731.66;;;8.10;53.50
70589;BME280;58152;49.202;18.744;2023-05-01T01:10:04;97742.88;;;8.13;53.87
70589;BME280;58152;49.202;18.744;2023-05-01T01:12:47;97735.03;;;8.13;52.90
70589;BME280;58152;49.202;18.744;2023-05-01T01:15:38;97736.09;;;8.08;53.58
70589;BME280;58152;49.202;18.744;2023-05-01T01:18:16;97736.13;;;8.06;52.70
70589;BME280;58152;49.202;18.744;2023-05-01T01:21:12;97741.50;;;8.02;53.42
70589;BME280;58152;49.202;18.744;2023-05-01T01:35:07;97731.38;;;7.89;52.74
70589;BME280;58152;49.202;18.744;2023-05-01T01:37:38;97727.34;;;7.78;53.42
70589;BME280;58152;49.202;18.744;2023-05-01T01:40:24;97723.31;;;7.68;54.03
70589;BME280;58152;49.202;18.744;2023-05-01T01:42:55;97719.13;;;7.60;54.02
70589;BME280;58152;49.202;18.744;2023-05-01T01:45:24;97719.19;;;7.59;53.77
70589;BME280;58152;49.202;18.744;2023-05-01T01:47:54;97721.78;;;7.59;53.81
70589;BME280;58152;49.202;18.744;2023-05-01T01:50:23;97720.03;;;7.59;53.77
70589;BME280;58152;49.202;18.744;2023-05-01T01:52:52;97721.75;;;7.60;53.87
70589;BME280;58152;49.202;18.744;2023-05-01T01:55:21;97712.63;;;7.44;53.72
70589;BME280;58152;49.202;18.744;2023-05-01T01:57:49;97708.59;;;7.32;54.35
70589;BME280;58152;49.202;18.744;2023-05-01T02:00:16;97711.50;;;7.22;54.56
70589;BME280;58152;49.202;18.744;2023-05-01T02:02:43;97706.56;;;7.09;54.76
70589;BME280;58152;49.202;18.744;2023-05-01T02:05:13;97698.13;;;7.01;54.36
70589;BME280;58152;49.202;18.744;2023-05-01T02:07:40;97707.75;;;6.98;54.85
70589;BME280;58152;49.202;18.744;2023-05-01T02:10:08;97695.09;;;6.82;55.06
70589;BME280;58152;49.202;18.744;2023-05-01T02:12:36;97702.16;;;6.79;55.24
70589;BME280;58152;49.202;18.744;2023-05-01T02:15:02;97705.00;;;6.68;55.25
70589;BME280;58152;49.202;18.744;2023-05-01T02:17:31;97699.84;;;6.67;55.64
70589;BME280;58152;49.202;18.744;2023-05-01T02:19:57;97700.53;;;6.73;55.33
70589;BME280;58152;49.202;18.744;2023-05-01T02:22:24;97691.00;;;6.74;55.28
70589;BME280;58152;49.202;18.744;2023-05-01T02:24:52;97700.50;;;6.75;55.14
70589;BME280;58152;49.202;18.744;2023-05-01T02:27:34;97691.22;;;6.63;56.13
70589;BME280;58152;49.202;18.744;2023-05-01T02:30:01;97698.63;;;6.44;55.76
70589;BME280;58152;49.202;18.744;2023-05-01T02:32:27;97696.09;;;6.41;55.66
70589;BME280;58152;49.202;18.744;2023-05-01T02:34:53;97692.78;;;6.34;55.74
70589;BME280;58152;49.202;18.744;2023-05-01T02:37:19;97685.97;;;6.29;55.82
70589;BME280;58152;49.202;18.744;2023-05-01T02:39:45;97691.81;;;6.39;56.08
70589;BME280;58152;49.202;18.744;2023-05-01T02:42:12;97694.56;;;6.32;56.08
70589;BME280;58152;49.202;18.744;2023-05-01T02:44:50;97699.81;;;6.31;56.07
70589;BME280;58152;49.202;18.744;2023-05-01T02:47:19;97691.28;;;6.23;56.05
70589;BME280;58152;49.202;18.744;2023-05-01T02:49:47;97681.09;;;6.14;56.05
70589;BME280;58152;49.202;18.744;2023-05-01T02:52:14;97687.25;;;6.11;56.06
70589;BME280;58152;49.202;18.744;2023-05-01T02:54:41;97684.78;;;6.05;56.17
70589;BME280;58152;49.202;18.744;2023-05-01T02:57:09;97680.53;;;6.01;56.29
70589;BME280;58152;49.202;18.744;2023-05-01T02:59:34;97681.50;;;5.95;56.59
70589;BME280;58152;49.202;18.744;2023-05-01T03:02:00;97682.38;;;5.96;56.44
70589;BME280;58152;49.202;18.744;2023-05-01T03:04:26;97679.00;;;5.89;56.62
70589;BME280;58152;49.202;18.744;2023-05-01T03:06:52;97680.78;;;5.87;56.17
70589;BME280;58152;49.202;18.744;2023-05-01T03:09:18;97676.53;;;5.83;56.69
70589;BME280;58152;49.202;18.744;2023-05-01T03:11:43;97677.34;;;5.85;56.52
70589;BME280;58152;49.202;18.744;2023-05-01T03:14:09;97683.50;;;5.82;56.89
70589;BME280;58152;49.202;18.744;2023-05-01T03:16:35;97681.00;;;5.76;56.86
70589;BME280;58152;49.202;18.744;2023-05-01T03:19:01;97686.28;;;5.73;56.97
70589;BME280;58152;49.202;18.744;2023-05-01T03:21:26;97683.78;;;5.69;56.96
70589;BME280;58152;49.202;18.744;2023-05-01T03:23:52;97678.69;;;5.63;56.93
70589;BME280;58152;49.202;18.744;2023-05-01T03:26:18;97680.47;;;5.60;57.37
70589;BME280;58152;49.202;18.744;2023-05-01T03:28:43;97686.50;;;5.63;57.14
70589;BME280;58152;49.202;18.744;2023-05-01T03:31:08;97691.72;;;5.61;57.10
70589;BME280;58152;49.202;18.744;2023-05-01T03:33:34;97690.88;;;5.60;56.93
70589;BME280;58152;49.202;18.744;2023-05-01T03:36:03;97687.41;;;5.60;57.23
70589;BME280;58152;49.202;18.744;2023-05-01T03:38:32;97692.53;;;5.65;57.09
70589;BME280;58152;49.202;18.744;2023-05-01T03:40:58;97690.06;;;5.57;57.35
70589;BME280;58152;49.202;18.744;2023-05-01T03:43:24;97695.38;;;5.52;57.37
70589;BME280;58152;49.202;18.744;2023-05-01T03:45:50;97689.44;;;5.46;57.41
70589;BME280;58152;49.202;18.744;2023-05-01T03:48:19;97689.50;;;5.43;57.13
70589;BME280;58152;49.202;18.744;2023-05-01T03:50:44;97689.50;;;5.43;57.45
70589;BME280;58152;49.202;18.744;2023-05-01T03:53:11;97686.03;;;5.42;57.37
70589;BME280;58152;49.202;18.744;2023-05-01T03:55:37;97704.16;;;5.47;57.54
70589;BME280;58152;49.202;18.744;2023-05-01T03:58:02;97695.59;;;5.42;57.64
70589;BME280;58152;49.202;18.744;2023-05-01T04:00:28;97700.72;;;5.46;57.25
70589;BME280;58152;49.202;18.744;2023-05-01T04:02:53;97697.03;;;5.56;57.37
70589;BME280;58152;49.202;18.744;2023-05-01T04:05:20;97702.28;;;5.53;57.38
70589;BME280;58152;49.202;18.744;2023-05-01T04:07:46;97691.25;;;5.42;57.78
70589;BME280;58152;49.202;18.744;2023-05-01T04:10:11;97701.75;;;5.38;57.58
70589;BME280;58152;49.202;18.744;2023-05-01T04:12:37;97707.03;;;5.33;57.74
70589;BME280;58152;49.202;18.744;2023-05-01T04:15:03;97697.53;;;5.30;57.85
70589;BME280;58152;49.202;18.744;2023-05-01T04:17:29;97702.78;;;5.29;58.05
70589;BME280;58152;49.202;18.744;2023-05-01T04:19:54;97701.03;;;5.29;57.87
70589;BME280;58152;49.202;18.744;2023-05-01T04:22:23;97702.81;;;5.27;58.13
70589;BME280;58152;49.202;18.744;2023-05-01T04:24:48;97703.56;;;5.32;58.13
70589;BME280;58152;49.202;18.744;2023-05-01T04:27:14;97702.66;;;5.35;58.20
70589;BME280;58152;49.202;18.744;2023-05-01T04:29:39;97707.03;;;5.33;58.31
70589;BME280;58152;49.202;18.744;2023-05-01T04:32:06;97704.38;;;5.34;58.04
70589;BME280;58152;49.202;18.744;2023-05-01T04:34:32;97701.88;;;5.31;58.39
70589;BME280;58152;49.202;18.744;2023-05-01T04:36:57;97701.78;;;5.36;58.23
70589;BME280;58152;49.202;18.744;2023-05-01T04:39:23;97711.88;;;5.51;58.10
70589;BME280;58152;49.202;18.744;2023-05-01T04:41:48;97710.91;;;5.57;58.28
70589;BME280;58152;49.202;18.744;2023-05-01T04:44:14;97702.28;;;5.55;57.85
70589;BME280;58152;49.202;18.744;2023-05-01T04:46:39;97712.59;;;5.59;58.03
70589;BME280;58152;49.202;18.744;2023-05-01T04:49:08;97712.59;;;5.59;57.78
70589;BME280;58152;49.202;18.744;2023-05-01T04:51:33;97708.25;;;5.60;58.12
70589;BME280;58152;49.202;18.744;2023-05-01T04:53:59;97714.16;;;5.68;57.91
70589;BME280;58152;49.202;18.744;2023-05-01T04:56:25;97711.47;;;5.71;57.62
70589;BME280;58152;49.202;18.744;2023-05-01T04:58:50;97707.84;;;5.80;57.46
70589;BME280;58152;49.202;18.744;2023-05-01T05:01:16;97709.53;;;5.81;57.65
70589;BME280;58152;49.202;18.744;2023-05-01T05:03:42;97718.94;;;5.88;57.75
70589;BME280;58152;49.202;18.744;2023-05-01T05:06:07;97701.63;;;5.85;57.73
70589;BME280;58152;49.202;18.744;2023-05-01T05:08:33;97699.03;;;5.87;57.22
70589;BME280;58152;49.202;18.744;2023-05-01T05:10:59;97700.69;;;5.90;57.59
70589;BME280;58152;49.202;18.744;2023-05-01T05:13:25;97710.94;;;5.99;57.67
70589;BME280;58152;49.202;18.744;2023-05-01T05:15:51;97701.41;;;5.98;57.30
70589;BME280;58152;49.202;18.744;2023-05-01T05:18:16;97702.22;;;6.00;57.76
70589;BME280;58152;49.202;18.744;2023-05-01T05:20:41;97716.91;;;6.04;57.90
70589;BME280;58152;49.202;18.744;2023-05-01T05:23:07;97713.38;;;6.06;57.39
70589;BME280;58152;49.202;18.744;2023-05-01T05:25:32;97710.69;;;6.11;57.82
70589;BME280;58152;49.202;18.744;2023-05-01T05:27:58;97707.97;;;6.16;57.74
70589;BME280;58152;49.202;18.744;2023-05-01T05:30:25;97720.06;;;6.18;57.55
70589;BME280;58152;49.202;18.744;2023-05-01T05:32:50;97713.94;;;6.21;57.77
70589;BME280;58152;49.202;18.744;2023-05-01T05:35:16;97714.78;;;6.21;57.29
70589;BME280;58152;49.202;18.744;2023-05-01T05:37:41;97715.59;;;6.25;57.41
70589;BME280;58152;49.202;18.744;2023-05-01T05:40:07;97711.22;;;6.25;57.39
70589;BME280;58152;49.202;18.744;2023-05-01T05:42:33;97714.53;;;6.32;57.54
70589;BME280;58152;49.202;18.744;2023-05-01T05:44:58;97703.25;;;6.31;57.46
70589;BME280;58152;49.202;18.744;2023-05-01T05:47:24;97710.06;;;6.39;57.62
70589;BME280;58152;49.202;18.744;2023-05-01T05:49:50;97702.94;;;6.45;57.27
70589;BME280;58152;49.202;18.744;2023-05-01T05:52:15;97706.28;;;6.52;57.49
70589;BME280;58152;49.202;18.744;2023-05-01T05:54:41;97717.34;;;6.61;57.37
70589;BME280;58152;49.202;18.744;2023-05-01T05:57:07;97710.31;;;6.65;57.58
70589;BME280;58152;49.202;18.744;2023-05-01T05:59:32;97712.75;;;6.71;57.15
70589;BME280;58152;49.202;18.744;2023-05-01T06:01:57;97699.66;;;6.74;57.24
70589;BME280;58152;49.202;18.744;2023-05-01T06:04:23;97702.16;;;6.79;57.45
70589;BME280;58152;49.202;18.744;2023-05-01T06:06:49;97693.38;;;6.81;57.00
70589;BME280;58152;49.202;18.744;2023-05-01T06:09:14;97701.94;;;6.86;56.70
70589;BME280;58152;49.202;18.744;2023-05-01T06:11:40;97696.63;;;6.91;56.90
70589;BME280;58152;49.202;18.744;2023-05-01T06:14:05;97706.00;;;6.98;56.54
70589;BME280;58152;49.202;18.744;2023-05-01T06:16:31;97695.50;;;7.01;56.85
70589;BME280;58152;49.202;18.744;2023-05-01T06:18:58;97703.16;;;7.07;57.01
70589;BME280;58152;49.202;18.744;2023-05-01T06:21:23;97699.59;;;7.11;56.78
70589;BME280;58152;49.202;18.744;2023-05-01T06:23:49;97702.06;;;7.16;56.96
70589;BME280;58152;49.202;18.744;2023-05-01T06:26:15;97704.63;;;7.18;56.38
70589;BME280;58152;49.202;18.744;2023-05-01T06:28:40;97707.97;;;7.23;56.98
70589;BME280;58152;49.202;18.744;2023-05-01T06:31:06;97700.03;;;7.27;56.81
70589;BME280;58152;49.202;18.744;2023-05-01T06:33:37;97694.81;;;7.27;56.93
70589;BME280;58152;49.202;18.744;2023-05-01T06:36:04;97692.97;;;7.31;56.58
70589;BME280;58152;49.202;18.744;2023-05-01T06:38:29;97703.16;;;7.40;55.95
70589;BME280;58152;49.202;18.744;2023-05-01T06:40:59;97697.91;;;7.42;56.12
70589;BME280;58152;49.202;18.744;2023-05-01T06:43:25;97692.59;;;7.45;55.74
70589;BME280;58152;49.202;18.744;2023-05-01T06:45:55;97701.94;;;7.53;56.10
70589;BME280;58152;49.202;18.744;2023-05-01T06:48:21;97695.75;;;7.56;56.09
70589;BME280;58152;49.202;18.744;2023-05-01T06:50:46;97700.00;;;7.60;56.66
70589;BME280;58152;49.202;18.744;2023-05-01T06:53:12;97697.31;;;7.63;56.58
70589;BME280;58152;49.202;18.744;2023-05-01T06:55:37;97698.09;;;7.67;55.95
70589;BME280;58152;49.202;18.744;2023-05-01T06:58:03;97704.09;;;7.69;56.12
70589;BME280;58152;49.202;18.744;2023-05-01T07:00:29;97702.19;;;7.75;56.11
70589;BME280;58152;49.202;18.744;2023-05-01T07:02:54;97700.25;;;7.82;56.15
70589;BME280;58152;49.202;18.744;2023-05-01T07:05:20;97699.28;;;7.86;56.05
70589;BME280;58152;49.202;18.744;2023-05-01T07:07:46;97688.75;;;7.89;56.18
70589;BME280;58152;49.202;18.744;2023-05-01T07:10:14;97691.09;;;7.97;56.24
70589;BME280;58152;49.202;18.744;2023-05-01T07:12:42;97689.25;;;8.02;55.61
70589;BME280;58152;49.202;18.744;2023-05-01T07:15:08;97687.38;;;8.05;55.80
70589;BME280;58152;49.202;18.744;2023-05-01T07:17:34;97674.22;;;8.08;56.77
70589;BME280;58152;49.202;18.744;2023-05-01T07:20:04;97680.16;;;8.13;56.46
70589;BME280;58152;49.202;18.744;2023-05-01T07:22:30;97677.63;;;8.10;55.50
70589;BME280;58152;49.202;18.744;2023-05-01T07:24:55;97686.06;;;8.20;55.46
70589;BME280;58152;49.202;18.744;2023-05-01T07:27:20;97681.72;;;8.19;56.07
70589;BME280;58152;49.202;18.744;2023-05-01T07:29:46;97678.31;;;8.17;55.77
70589;BME280;58152;49.202;18.744;2023-05-01T07:32:11;97681.72;;;8.19;55.91
70589;BME280;58152;49.202;18.744;2023-05-01T07:34:37;97685.03;;;8.24;55.83
70589;BME280;58152;49.202;18.744;2023-05-01T07:37:02;97683.31;;;8.25;55.68
70589;BME280;58152;49.202;18.744;2023-05-01T07:39:29;97679.72;;;8.27;55.98
70589;BME280;58152;49.202;18.744;2023-05-01T07:41:56;97679.69;;;8.29;55.92
70589;BME280;58152;49.202;18.744;2023-05-01T07:44:22;97685.72;;;8.31;55.85
70589;BME280;58152;49.202;18.744;2023-05-01T07:46:48;97671.66;;;8.35;56.14
70589;BME280;58152;49.202;18.744;2023-05-01T07:49:13;97681.16;;;8.39;56.20
70589;BME280;58152;49.202;18.744;2023-05-01T07:51:38;97676.66;;;8.43;56.13
70589;BME280;58152;49.202;18.744;2023-05-01T07:54:04;97680.03;;;8.46;55.43
70589;BME280;58152;49.202;18.744;2023-05-01T07:56:30;97670.41;;;8.48;55.62
70589;BME280;58152;49.202;18.744;2023-05-01T07:58:56;97679.88;;;8.52;55.19
70589;BME280;58152;49.202;18.744;2023-05-01T08:01:22;97673.72;;;8.53;55.68
70589;BME280;58152;49.202;18.744;2023-05-01T08:03:47;97679.66;;;8.58;55.57
70589;BME280;58152;49.202;18.744;2023-05-01T08:06:12;97670.84;;;8.61;55.88
70589;BME280;58152;49.202;18.744;2023-05-01T08:08:38;97669.00;;;8.64;55.29
70589;BME280;58152;49.202;18.744;2023-05-01T08:11:03;97658.44;;;8.68;55.14
70589;BME280;58152;49.202;18.744;2023-05-01T08:13:29;97667.78;;;8.75;55.72
70589;BME280;58152;49.202;18.744;2023-05-01T08:15:54;97667.59;;;8.81;55.68
70589;BME280;58152;49.202;18.744;2023-05-01T08:18:23;97659.53;;;8.87;56.21
70589;BME280;58152;49.202;18.744;2023-05-01T08:20:48;97655.91;;;8.91;56.04
70589;BME280;58152;49.202;18.744;2023-05-01T08:23:15;97653.94;;;8.98;55.58
70589;BME280;58152;49.202;18.744;2023-05-01T08:25:40;97658.13;;;9.03;55.81
70589;BME280;58152;49.202;18.744;2023-05-01T08:28:06;97656.19;;;9.08;55.69
70589;BME280;58152;49.202;18.744;2023-05-01T08:30:31;97653.34;;;9.14;55.55
70589;BME280;58152;49.202;18.744;2023-05-01T08:32:56;97654.00;;;9.21;55.74
70589;BME280;58152;49.202;18.744;2023-05-01T08:35:22;97648.63;;;9.26;56.00
70589;BME280;58152;49.202;18.744;2023-05-01T08:37:50;97641.44;;;9.31;55.81
70589;BME280;58152;49.202;18.744;2023-05-01T08:40:15;97637.69;;;9.38;55.81
70589;BME280;58152;49.202;18.744;2023-05-01T08:42:41;97643.56;;;9.45;56.05
70589;BME280;58152;49.202;18.744;2023-05-01T08:45:08;97638.16;;;9.49;55.90
70589;BME280;58152;49.202;18.744;2023-05-01T08:47:38;97630.19;;;9.52;55.44
70589;BME280;58152;49.202;18.744;2023-05-01T08:50:08;97637.75;;;9.60;56.00
70589;BME280;58152;49.202;18.744;2023-05-01T08:52:37;97630.69;;;9.62;55.35
70589;BME280;58152;49.202;18.744;2023-05-01T08:55:07;97629.47;;;9.72;55.44
70589;BME280;58152;49.202;18.744;2023-05-01T08:57:36;97630.16;;;9.76;55.43
70589;BME280;58152;49.202;18.744;2023-05-01T09:00:02;97628.97;;;9.84;55.96
70589;BME280;58152;49.202;18.744;2023-05-01T09:02:30;97630.53;;;9.90;56.40
70589;BME280;58152;49.202;18.744;2023-05-01T09:05:02;97628.63;;;9.93;56.32
70589;BME280;58152;49.202;18.744;2023-05-01T09:07:32;97628.34;;;10.01;56.68
70589;BME280;58152;49.202;18.744;2023-05-01T09:09:57;97615.13;;;10.04;56.82
70589;BME280;58152;49.202;18.744;2023-05-01T09:12:26;97614.81;;;10.12;56.74
70589;BME280;58152;49.202;18.744;2023-05-01T09:14:54;97626.56;;;10.25;57.54
70589;BME280;58152;49.202;18.744;2023-05-01T09:17:21;97609.66;;;10.32;57.72
70589;BME280;58152;49.202;18.744;2023-05-01T09:19:50;97605.88;;;10.39;57.31
70589;BME280;58152;49.202;18.744;2023-05-01T09:22:17;97612.47;;;10.50;58.11
70589;BME280;58152;49.202;18.744;2023-05-01T09:24:43;97600.88;;;10.55;57.75
70589;BME280;58152;49.202;18.744;2023-05-01T09:27:11;97599.69;;;10.62;56.77
70589;BME280;58152;49.202;18.744;2023-05-01T09:29:42;97614.16;;;10.73;57.25
70589;BME280;58152;49.202;18.744;2023-05-01T09:32:25;97611.84;;;10.85;57.83
70589;BME280;58152;49.202;18.744;2023-05-01T09:34:53;97611.59;;;10.91;57.80
70589;BME280;58152;49.202;18.744;2023-05-01T09:37:32;97604.28;;;10.98;58.06
70589;BME280;58152;49.202;18.744;2023-05-01T09:40:08;97610.06;;;11.06;57.83
70589;BME280;58152;49.202;18.744;2023-05-01T09:42:41;97607.16;;;11.12;58.00
70589;BME280;58152;49.202;18.744;2023-05-01T09:45:18;97596.44;;;11.18;58.08
70589;BME280;58152;49.202;18.744;2023-05-01T09:47:44;97604.66;;;11.30;57.14
70589;BME280;58152;49.202;18.744;2023-05-01T09:50:33;97606.81;;;11.40;57.45
70589;BME280;58152;49.202;18.744;2023-05-01T09:53:03;97605.63;;;11.48;56.04
70589;BME280;58152;49.202;18.744;2023-05-01T09:55:29;97594.19;;;11.49;56.10
70589;BME280;58152;49.202;18.744;2023-05-01T09:57:55;97592.00;;;11.58;56.64
70589;BME280;58152;49.202;18.744;2023-05-01T10:00:30;97584.63;;;11.66;55.21
70589;BME280;58152;49.202;18.744;2023-05-01T10:02:55;97589.63;;;11.91;55.78
70589;BME280;58152;49.202;18.744;2023-05-01T10:05:20;97582.63;;;12.09;55.72
70589;BME280;58152;49.202;18.744;2023-05-01T10:07:58;97579.69;;;12.34;54.73
70589;BME280;58152;49.202;18.744;2023-05-01T10:10:24;97577.53;;;12.60;54.74
70589;BME280;58152;49.202;18.744;2023-05-01T10:12:49;97571.06;;;12.84;54.33
70589;BME280;58152;49.202;18.744;2023-05-01T10:15:15;97568.09;;;13.08;53.86
70589;BME280;58152;49.202;18.744;2023-05-01T10:17:42;97570.31;;;13.33;53.53
70589;BME280;58152;49.202;18.744;2023-05-01T10:20:11;97570.81;;;13.57;53.49
70589;BME280;58152;49.202;18.744;2023-05-01T10:22:38;97568.72;;;13.79;53.20
70589;BME280;58152;49.202;18.744;2023-05-01T10:25:07;97561.22;;;14.03;52.62
70589;BME280;58152;49.202;18.744;2023-05-01T10:27:33;97554.97;;;14.20;52.16
70589;BME280;58152;49.202;18.744;2023-05-01T10:30:01;97558.09;;;14.42;51.59
70589;BME280;58152;49.202;18.744;2023-05-01T10:32:29;97562.44;;;14.59;51.08
70589;BME280;58152;49.202;18.744;2023-05-01T10:34:58;97555.22;;;14.77;50.60
70589;BME280;58152;49.202;18.744;2023-05-01T10:43:18;97551.91;;;15.46;49.01
70589;BME280;58152;49.202;18.744;2023-05-01T10:45:47;97543.63;;;15.67;48.68
70589;BME280;58152;49.202;18.744;2023-05-01T10:51:18;97527.13;;;16.05;48.69
70589;BME280;58152;49.202;18.744;2023-05-01T10:53:45;97526.66;;;16.25;48.33
70589;BME280;58152;49.202;18.744;2023-05-01T11:04:44;97516.47;;;16.98;46.91
70589;BME280;58152;49.202;18.744;2023-05-01T11:09:49;97512.63;;;17.41;45.75
70589;BME280;58152;49.202;18.744;2023-05-01T11:15:03;97492.66;;;17.73;45.85
70589;BME280;58152;49.202;18.744;2023-05-01T11:20:11;97478.66;;;17.95;45.31
70589;BME280;58152;49.202;18.744;2023-05-01T11:22:39;97479.47;;;18.09;45.18
70589;BME280;58152;49.202;18.744;2023-05-01T11:25:17;97482.69;;;18.25;44.01
70589;BME280;58152;49.202;18.744;2023-05-01T11:27:54;97481.53;;;18.40;44.02
70589;BME280;58152;49.202;18.744;2023-05-01T11:30:20;97482.44;;;18.52;44.80
70589;BME280;58152;49.202;18.744;2023-05-01T11:32:47;97469.31;;;18.62;44.00
70589;BME280;58152;49.202;18.744;2023-05-01T11:35:26;97464.44;;;18.79;43.68
70589;BME280;58152;49.202;18.744;2023-05-01T11:37:52;97463.47;;;18.92;44.04
70589;BME280;58152;49.202;18.744;2023-05-01T11:40:30;97463.28;;;19.06;43.82
70589;BME280;58152;49.202;18.744;2023-05-01T11:43:04;97458.91;;;19.16;43.23
70589;BME280;58152;49.202;18.744;2023-05-01T11:45:30;97460.22;;;19.33;43.54
70589;BME280;58152;49.202;18.744;2023-05-01T11:47:57;97449.59;;;19.44;43.75
70589;BME280;58152;49.202;18.744;2023-05-01T11:50:30;97452.00;;;19.59;42.55
70589;BME280;58152;49.202;18.744;2023-05-01T11:52:56;97438.97;;;19.67;42.49
70589;BME280;58152;49.202;18.744;2023-05-01T11:55:30;97445.00;;;19.80;42.05
70589;BME280;58152;49.202;18.744;2023-05-01T11:57:56;97443.97;;;19.92;42.89
70589;BME280;58152;49.202;18.744;2023-05-01T12:00:38;97447.06;;;20.09;41.74
70589;BME280;58152;49.202;18.744;2023-05-01T12:03:09;97440.53;;;20.13;42.33
70589;BME280;58152;49.202;18.744;2023-05-01T12:05:37;97436.81;;;20.25;41.48
70589;BME280;58152;49.202;18.744;2023-05-01T12:10:39;97440.50;;;20.45;40.98
70589;BME280;58152;49.202;18.744;2023-05-01T12:13:07;97432.75;;;20.53;40.45
70589;BME280;58152;49.202;18.744;2023-05-01T12:15:34;97428.19;;;20.65;40.01
70589;BME280;58152;49.202;18.744;2023-05-01T12:18:04;97439.75;;;20.75;39.87
70589;BME280;58152;49.202;18.744;2023-05-01T12:20:36;97429.13;;;20.85;38.81
70589;BME280;58152;49.202;18.744;2023-05-01T12:23:03;97437.66;;;20.99;40.00
70589;BME280;58152;49.202;18.744;2023-05-01T12:25:33;97414.16;;;21.14;39.80
70589;BME280;58152;49.202;18.744;2023-05-01T12:28:12;97419.47;;;21.35;38.55
70589;BME280;58152;49.202;18.744;2023-05-01T12:30:38;97418.09;;;21.41;38.72
70589;BME280;58152;49.202;18.744;2023-05-01T12:33:13;97411.38;;;21.56;38.68
70589;BME280;58152;49.202;18.744;2023-05-01T12:35:40;97406.22;;;21.74;39.00
70589;BME280;58152;49.202;18.744;2023-05-01T12:38:14;97406.13;;;21.95;36.95
70589;BME280;58152;49.202;18.744;2023-05-01T12:40:57;97397.53;;;22.11;37.51
70589;BME280;58152;49.202;18.744;2023-05-01T12:43:34;97400.13;;;22.31;37.32
70589;BME280;58152;49.202;18.744;2023-05-01T12:46:00;97395.03;;;22.48;35.29
70589;BME280;58152;49.202;18.744;2023-05-01T12:48:26;97390.81;;;22.45;37.37
70589;BME280;58152;49.202;18.744;2023-05-01T12:50:52;97400.94;;;22.51;37.72
70589;BME280;58152;49.202;18.744;2023-05-01T12:53:25;97397.53;;;22.69;36.71
70589;BME280;58152;49.202;18.744;2023-05-01T12:55:52;97403.09;;;22.85;36.60
70589;BME280;58152;49.202;18.744;2023-05-01T12:58:18;97388.63;;;22.88;36.44
70589;BME280;58152;49.202;18.744;2023-05-01T13:00:49;97392.84;;;22.90;35.93
70589;BME280;58152;49.202;18.744;2023-05-01T13:03:28;97399.16;;;22.99;35.60
70589;BME280;58152;49.202;18.744;2023-05-01T13:05:56;97384.66;;;23.01;36.29
70589;BME280;58152;49.202;18.744;2023-05-01T13:08:29;97375.00;;;23.18;35.52
70589;BME280;58152;49.202;18.744;2023-05-01T13:11:00;97375.59;;;23.40;35.45
70589;BME280;58152;49.202;18.744;2023-05-01T13:13:32;97371.03;;;23.50;35.56
70589;BME280;58152;49.202;18.744;2023-05-01T13:16:07;97374.19;;;23.63;34.23
70589;BME280;58152;49.202;18.744;2023-05-01T13:18:48;97360.66;;;23.74;32.67
70589;BME280;58152;49.202;18.744;2023-05-01T13:21:22;97359.41;;;23.87;33.52
70589;BME280;58152;49.202;18.744;2023-05-01T13:23:52;97350.53;;;24.04;34.98
70589;BME280;58152;49.202;18.744;2023-05-01T13:26:27;97349.75;;;24.29;34.43
70589;BME280;58152;49.202;18.744;2023-05-01T13:28:53;97355.50;;;24.52;35.21
70589;BME280;58152;49.202;18.744;2023-05-01T13:31:19;97350.88;;;24.63;34.90
70589;BME280;58152;49.202;18.744;2023-05-01T13:33:47;97344.59;;;24.54;34.82
70589;BME280;58152;49.202;18.744;2023-05-01T13:36:15;97342.81;;;24.63;34.27
70589;BME280;58152;49.202;18.744;2023-05-01T13:38:49;97336.69;;;24.78;34.67
70589;BME280;58152;49.202;18.744;2023-05-01T13:41:16;97346.59;;;24.78;34.28
70589;BME280;58152;49.202;18.744;2023-05-01T13:43:42;97343.09;;;24.51;34.08